logo dgac
Miércoles 10 de Agosto del 2022
Buscar por aerodromo o helipuerto
Ingrese nombre de aeródromo, localidad o designador OACI:
TAF: TAF SCHR 101043Z 1012/1100 31005KT 9000 -SHRA FEW034 BKN060 TN05/1012Z TX09/1018Z BECMG 1014/1016 27005KT 9999 NSW SCT060
TAF del 10/08/2022 a las 10:43 UTC
Para mayor información visite www.meteochile.cl
Período de validez: desde el 10 a las 12:00 UTC hasta el 11 a las 00:00 UTC
Viento: dirección 310 grados, velocidad 5 nudos
Visibilidad: 9000 metros
Débil ChubascosLluvia
Nubes: Escasa nubosidad a 3400 pies sobre el nivel del aeródromo
Nubes: Nublado a 6000 pies sobre el nivel del aeródromo
Temperatura mínima: 5ºC el 10 a las 12:00 UTC
Temperatura máxima: 9ºC el 10 a las 18:00 UTC
Se espera un cambio entre las 14:00 UTC del 10 y las 16:00 UTC del 10, :
Viento: dirección 270 grados, velocidad 5 nudos
Visibilidad: 10 km o más
No significant weather phenomena are observed at present
Nubes: Nubosidad parcial a 6000 pies sobre el nivel del aeródromo